Time;durP1;ratioP1;P1;durP2;ratioP2;P2;SDS_P1;SDS_P2;PMS_P1;PMS_P2;Temp;Humidity;BMP_temperature;BMP_pressure;BME280_temperature;BME280_humidity;BME280_pressure;Samples;Min_cycle;Max_cycle;Signal;HPM_P1;HPM_P2
2022/07/21 00:01:34;;;;;;;1.30;1.30;;;21.10;99.90;;;;;;5111472;28;20715;-64
2022/07/21 00:04:01;;;;;;;1.10;1.10;;;21.20;99.90;;;;;;5109762;28;20253;-64
2022/07/21 00:06:28;;;;;;;1.30;1.30;;;21.20;99.90;;;;;;5111011;28;20210;-63
2022/07/21 00:08:55;;;;;;;2.28;1.55;;;21.20;99.90;;;;;;5103075;28;20283;-63
2022/07/21 00:11:21;;;;;;;1.42;1.40;;;21.20;99.90;;;;;;5110557;28;20236;-64
2022/07/21 00:13:48;;;;;;;1.55;1.45;;;21.10;99.90;;;;;;5114390;28;20325;-64
2022/07/21 00:16:16;;;;;;;1.75;1.65;;;21.10;99.90;;;;;;5106859;28;20289;-64
2022/07/21 00:18:43;;;;;;;1.50;1.50;;;21.10;99.90;;;;;;5119912;28;20297;-62
2022/07/21 00:21:10;;;;;;;1.40;1.40;;;21.10;99.90;;;;;;5117818;28;20315;-63
2022/07/21 00:23:37;;;;;;;1.75;1.65;;;21.00;99.90;;;;;;5102582;28;20213;-63
2022/07/21 00:26:04;;;;;;;1.48;1.40;;;21.00;99.90;;;;;;5110239;28;20210;-64
2022/07/21 00:28:31;;;;;;;1.60;1.50;;;20.90;99.90;;;;;;5111422;28;20202;-63
2022/07/21 00:30:58;;;;;;;1.50;1.50;;;21.00;99.90;;;;;;5104803;28;20206;-63
2022/07/21 00:33:26;;;;;;;1.23;1.23;;;21.00;99.90;;;;;;5108090;28;20241;-64
2022/07/21 00:35:53;;;;;;;1.45;1.40;;;21.10;99.90;;;;;;5102192;28;20215;-64
2022/07/21 00:38:19;;;;;;;1.35;1.35;;;21.00;99.90;;;;;;5103390;28;20230;-64
2022/07/21 00:40:46;;;;;;;1.45;1.40;;;21.00;99.90;;;;;;5114276;28;20212;-63
2022/07/21 00:43:13;;;;;;;1.60;1.50;;;21.00;99.90;;;;;;5115360;28;20295;-64
2022/07/21 00:45:40;;;;;;;1.48;1.40;;;21.00;99.90;;;;;;5105146;28;20321;-64
2022/07/21 00:48:07;;;;;;;1.33;1.33;;;21.00;99.90;;;;;;5110728;28;20285;-64
2022/07/21 00:50:36;;;;;;;1.40;1.40;;;21.00;99.90;;;;;;5112346;28;20936;-64
2022/07/21 00:53:02;;;;;;;1.55;1.45;;;21.00;99.90;;;;;;5108553;28;20289;-64
2022/07/21 00:55:30;;;;;;;1.55;1.45;;;21.10;99.90;;;;;;5109527;28;20776;-64
2022/07/21 00:57:57;;;;;;;1.52;1.42;;;21.30;99.90;;;;;;5108783;28;20561;-63
2022/07/21 01:00:27;;;;;;;1.30;1.30;;;21.40;99.90;;;;;;5106599;28;20232;-64
2022/07/21 01:02:54;;;;;;;1.27;1.27;;;21.30;99.90;;;;;;5111473;28;20232;-63
2022/07/21 01:05:21;;;;;;;1.20;1.20;;;21.20;99.90;;;;;;5106197;28;20309;-64
2022/07/21 01:07:51;;;;;;;1.50;1.40;;;21.20;99.90;;;;;;5108772;28;20736;-64
2022/07/21 01:10:20;;;;;;;1.60;1.50;;;21.10;99.90;;;;;;5109496;28;20234;-65
2022/07/21 01:12:48;;;;;;;1.60;1.50;;;21.20;99.90;;;;;;5105720;28;20276;-63
2022/07/21 01:15:16;;;;;;;1.48;1.38;;;21.20;99.90;;;;;;5110277;28;20408;-64
2022/07/21 01:17:45;;;;;;;1.35;1.35;;;21.30;99.90;;;;;;5107518;28;20289;-64
2022/07/21 01:20:14;;;;;;;1.27;1.27;;;21.20;99.90;;;;;;5104831;28;20207;-63
2022/07/21 01:22:44;;;;;;;1.38;1.38;;;21.20;99.90;;;;;;5105414;28;20298;-64
2022/07/21 01:25:12;;;;;;;1.65;1.55;;;21.10;99.90;;;;;;5106801;28;20294;-63
2022/07/21 01:27:39;;;;;;;1.38;1.38;;;21.10;99.90;;;;;;5112349;28;20288;-64
2022/07/21 01:30:09;;;;;;;1.50;1.40;;;21.00;99.90;;;;;;5099398;28;20251;-65
2022/07/21 01:32:36;;;;;;;1.23;1.23;;;21.10;99.90;;;;;;5114006;28;20300;-63
2022/07/21 01:35:04;;;;;;;1.55;1.50;;;21.10;99.90;;;;;;5111981;28;20710;-63
2022/07/21 01:37:34;;;;;;;1.40;1.40;;;21.20;99.90;;;;;;5106209;28;20277;-65
2022/07/21 01:42:47;;;;;;;1.40;1.30;;;21.20;99.90;;;;;;5119515;28;20279;-64
2022/07/21 01:45:14;;;;;;;1.50;1.40;;;21.10;99.90;;;;;;5100741;28;20365;-63
2022/07/21 01:47:41;;;;;;;1.70;1.60;;;21.10;99.90;;;;;;5105926;28;20205;-64
2022/07/21 01:50:08;;;;;;;1.50;1.40;;;21.10;99.90;;;;;;5112047;28;20194;-63
2022/07/21 01:52:35;;;;;;;1.20;1.20;;;21.10;99.90;;;;;;5108703;28;20216;-63
2022/07/21 01:55:04;;;;;;;1.40;1.40;;;21.10;99.90;;;;;;5111235;28;20291;-63
2022/07/21 01:57:31;;;;;;;1.20;1.20;;;21.10;99.90;;;;;;5108940;28;20293;-64
2022/07/21 01:59:58;;;;;;;1.92;1.50;;;21.10;99.90;;;;;;5110205;28;20679;-63
2022/07/21 02:02:25;;;;;;;1.20;1.20;;;21.10;99.90;;;;;;5109382;28;20210;-63
2022/07/21 02:04:52;;;;;;;1.65;1.40;;;21.10;99.90;;;;;;5107583;28;20225;-63
2022/07/21 02:07:19;;;;;;;1.58;1.48;;;21.00;99.90;;;;;;5104317;28;20198;-63
2022/07/21 02:09:46;;;;;;;1.20;1.20;;;21.10;99.90;;;;;;5108980;28;20290;-63
2022/07/21 02:12:14;;;;;;;1.30;1.30;;;21.10;99.90;;;;;;5111287;28;20293;-63
2022/07/21 02:14:41;;;;;;;1.45;1.45;;;21.10;99.90;;;;;;5107187;28;20321;-62
2022/07/21 02:17:07;;;;;;;1.30;1.30;;;21.10;99.90;;;;;;5107494;28;20201;-63
2022/07/21 02:19:34;;;;;;;1.35;1.35;;;21.10;99.90;;;;;;5107781;28;20663;-64
2022/07/21 02:22:01;;;;;;;1.40;1.30;;;21.10;99.90;;;;;;5102796;28;20297;-63
2022/07/21 02:24:28;;;;;;;1.50;1.40;;;21.10;99.90;;;;;;5104562;28;20229;-64
2022/07/21 02:26:55;;;;;;;1.42;1.40;;;21.10;99.90;;;;;;5111988;28;20312;-62
2022/07/21 02:29:24;;;;;;;1.60;1.50;;;21.10;99.90;;;;;;5110755;28;20302;-63
2022/07/21 02:31:50;;;;;;;1.42;1.42;;;21.20;99.90;;;;;;5113476;28;20233;-63
2022/07/21 02:34:17;;;;;;;1.30;1.30;;;21.10;99.90;;;;;;5113912;28;20268;-63
2022/07/21 02:36:44;;;;;;;1.30;1.30;;;21.10;99.90;;;;;;5105485;28;20205;-64
2022/07/21 02:39:11;;;;;;;1.42;1.40;;;21.10;99.90;;;;;;5107454;28;20660;-62
2022/07/21 02:41:38;;;;;;;1.38;1.38;;;21.10;99.90;;;;;;5111901;28;20240;-63
2022/07/21 02:44:05;;;;;;;1.30;1.30;;;21.10;99.90;;;;;;5110257;28;20232;-63
2022/07/21 02:46:33;;;;;;;1.20;1.20;;;21.10;99.90;;;;;;5111456;28;20707;-62
2022/07/21 02:49:00;;;;;;;1.42;1.42;;;21.10;99.90;;;;;;5113394;28;20725;-63
2022/07/21 02:51:27;;;;;;;1.60;1.50;;;21.10;99.90;;;;;;5119897;28;20738;-63
2022/07/21 02:53:54;;;;;;;1.40;1.30;;;21.10;99.90;;;;;;5121088;28;20222;-62
2022/07/21 02:56:20;;;;;;;1.30;1.30;;;21.10;99.90;;;;;;5120573;28;20290;-64
2022/07/21 02:58:47;;;;;;;1.50;1.40;;;21.10;99.90;;;;;;5115281;28;20297;-61
2022/07/21 03:01:15;;;;;;;1.45;1.45;;;21.10;99.90;;;;;;5114417;28;20270;-63
2022/07/21 03:03:43;;;;;;;1.65;1.55;;;21.00;99.90;;;;;;5116775;28;20664;-62
2022/07/21 03:06:10;;;;;;;1.60;1.60;;;21.10;99.90;;;;;;5108415;28;20254;-62
2022/07/21 03:08:37;;;;;;;1.42;1.40;;;21.10;99.90;;;;;;5111970;28;20299;-62
2022/07/21 03:11:04;;;;;;;1.60;1.60;;;21.10;99.90;;;;;;5114798;28;20266;-64
2022/07/21 03:13:30;;;;;;;1.63;1.52;;;21.10;99.90;;;;;;5113060;28;20210;-64
2022/07/21 03:15:57;;;;;;;1.50;1.50;;;21.10;99.90;;;;;;5105513;28;20245;-64
2022/07/21 03:18:24;;;;;;;1.48;1.48;;;21.10;99.90;;;;;;5114463;28;20202;-63
2022/07/21 03:20:53;;;;;;;1.45;1.45;;;21.10;99.90;;;;;;5108455;28;20198;-64
2022/07/21 03:23:20;;;;;;;1.50;1.50;;;21.10;99.90;;;;;;5115145;28;20298;-62
2022/07/21 03:25:47;;;;;;;1.80;1.45;;;21.10;99.90;;;;;;5117098;28;20304;-63
2022/07/21 03:28:14;;;;;;;1.43;1.43;;;21.10;99.90;;;;;;5113263;28;20515;-65
2022/07/21 03:30:41;;;;;;;1.50;1.40;;;21.10;99.90;;;;;;5104960;28;20624;-63
2022/07/21 03:33:08;;;;;;;1.70;1.60;;;21.00;99.90;;;;;;5107529;28;20234;-63
2022/07/21 03:35:36;;;;;;;1.45;1.45;;;21.00;99.90;;;;;;5106465;28;20253;-66
2022/07/21 03:38:05;;;;;;;1.70;1.60;;;21.00;99.90;;;;;;5108793;28;20202;-63
2022/07/21 03:40:42;;;;;;;2.05;1.95;;;21.00;99.90;;;;;;5101801;28;20230;-63
2022/07/21 03:43:09;;;;;;;1.35;1.35;;;20.90;99.90;;;;;;5125134;28;20197;-63
2022/07/21 03:45:36;;;;;;;1.70;1.60;;;20.90;99.90;;;;;;5111626;28;20257;-62
2022/07/21 03:48:06;;;;;;;1.38;1.38;;;20.90;99.90;;;;;;5105025;28;20285;-62
2022/07/21 03:50:34;;;;;;;1.50;1.40;;;20.90;99.90;;;;;;5109867;28;20221;-63
2022/07/21 03:53:01;;;;;;;1.70;1.60;;;20.90;99.90;;;;;;5108596;28;20679;-61
2022/07/21 03:55:30;;;;;;;1.75;1.65;;;20.80;99.90;;;;;;5106247;28;20258;-62
2022/07/21 03:57:59;;;;;;;1.50;1.50;;;20.80;99.90;;;;;;5117583;28;20202;-62
2022/07/21 04:00:29;;;;;;;1.55;1.52;;;20.80;99.90;;;;;;5114130;28;20226;-63
2022/07/21 04:02:57;;;;;;;1.63;1.63;;;20.80;99.90;;;;;;5110761;28;20229;-64
2022/07/21 04:05:24;;;;;;;1.50;1.40;;;20.80;99.90;;;;;;5115311;28;20226;-58
2022/07/21 04:07:52;;;;;;;1.98;1.50;;;20.70;99.90;;;;;;5107670;28;20288;-59
2022/07/21 04:10:21;;;;;;;1.48;1.38;;;20.90;99.90;;;;;;5115339;28;20286;-61
2022/07/21 04:12:50;;;;;;;2.13;2.03;;;21.20;99.90;;;;;;5111061;28;20212;-60
2022/07/21 04:15:18;;;;;;;1.60;1.50;;;21.30;99.90;;;;;;5107260;28;20229;-59
2022/07/21 04:17:45;;;;;;;1.58;1.48;;;21.50;99.90;;;;;;5112652;28;20289;-60
2022/07/21 04:20:14;;;;;;;1.55;1.48;;;21.70;99.90;;;;;;5107056;28;20356;-59
2022/07/21 04:22:42;;;;;;;1.35;1.30;;;21.80;99.90;;;;;;5108192;28;20233;-61
2022/07/21 04:25:09;;;;;;;1.27;1.27;;;21.90;99.90;;;;;;5109957;28;20218;-61
2022/07/21 04:27:37;;;;;;;1.60;1.50;;;21.90;99.90;;;;;;5114881;28;20206;-60
2022/07/21 04:30:08;;;;;;;1.40;1.30;;;22.00;99.90;;;;;;5115211;28;20656;-60
2022/07/21 04:32:35;;;;;;;1.30;1.25;;;22.00;99.90;;;;;;5116269;28;20233;-60
2022/07/21 04:35:02;;;;;;;1.33;1.30;;;22.00;99.90;;;;;;5108463;28;20232;-60
2022/07/21 04:37:29;;;;;;;1.25;1.25;;;22.10;99.90;;;;;;5105226;28;20302;-59
2022/07/21 04:39:56;;;;;;;1.50;1.48;;;22.30;99.90;;;;;;5115036;28;20249;-59
2022/07/21 04:42:23;;;;;;;1.50;1.40;;;22.40;99.90;;;;;;5107438;28;20194;-60
2022/07/21 04:44:50;;;;;;;1.20;1.20;;;22.40;99.90;;;;;;5113638;28;20256;-59
2022/07/21 04:47:18;;;;;;;1.42;1.42;;;22.50;99.90;;;;;;5106619;28;20220;-58
2022/07/21 04:49:45;;;;;;;2.03;1.23;;;22.50;99.90;;;;;;5105740;28;20204;-59
2022/07/21 04:52:12;;;;;;;1.52;1.40;;;22.50;99.90;;;;;;5104013;28;20289;-60
2022/07/21 04:54:39;;;;;;;1.20;1.20;;;22.60;99.90;;;;;;5112079;28;20348;-60
2022/07/21 04:57:06;;;;;;;1.48;1.42;;;22.60;99.90;;;;;;5105546;28;20203;-59
2022/07/21 04:59:34;;;;;;;1.60;1.50;;;22.50;99.90;;;;;;5105871;28;20214;-58
2022/07/21 05:02:02;;;;;;;1.20;1.20;;;22.50;99.90;;;;;;5113865;28;20288;-59
2022/07/21 05:04:30;;;;;;;1.35;1.33;;;22.50;99.90;;;;;;5103990;28;20226;-59
2022/07/21 05:06:57;;;;;;;1.40;1.40;;;22.60;99.90;;;;;;5110520;28;20263;-59
2022/07/21 05:09:24;;;;;;;1.50;1.40;;;22.70;99.90;;;;;;5099163;28;20325;-60
2022/07/21 05:11:51;;;;;;;1.23;1.13;;;22.60;99.90;;;;;;5109745;28;20202;-59
2022/07/21 05:14:18;;;;;;;1.52;1.20;;;22.60;99.90;;;;;;5100760;28;20234;-59
2022/07/21 05:16:45;;;;;;;1.30;1.30;;;22.70;99.90;;;;;;5111484;28;20197;-58
2022/07/21 05:19:12;;;;;;;1.52;1.42;;;22.70;99.90;;;;;;5114579;28;20198;-59
2022/07/21 05:21:41;;;;;;;1.20;1.20;;;22.70;99.90;;;;;;5101573;28;20877;-59
2022/07/21 05:24:08;;;;;;;1.40;1.40;;;22.70;99.90;;;;;;5103876;28;20221;-59
2022/07/21 05:26:35;;;;;;;1.65;1.60;;;22.80;99.90;;;;;;5109695;28;20226;-60
2022/07/21 05:29:02;;;;;;;1.55;1.50;;;22.80;99.90;;;;;;5110847;28;20623;-61
2022/07/21 05:31:29;;;;;;;1.33;1.33;;;22.90;99.90;;;;;;5106604;28;20688;-60
2022/07/21 05:33:56;;;;;;;1.60;1.50;;;22.90;99.90;;;;;;5100363;28;20228;-58
2022/07/21 05:36:23;;;;;;;1.40;1.40;;;23.00;99.90;;;;;;5111657;28;20317;-60
2022/07/21 05:38:51;;;;;;;1.30;1.30;;;23.10;99.90;;;;;;5114221;28;20263;-60
2022/07/21 05:41:18;;;;;;;1.50;1.40;;;23.00;99.90;;;;;;5120335;28;20236;-60
2022/07/21 05:43:45;;;;;;;1.33;1.33;;;22.80;99.90;;;;;;5122556;28;20197;-60
2022/07/21 05:46:12;;;;;;;1.42;1.40;;;22.70;99.90;;;;;;5110994;28;20222;-61
2022/07/21 05:48:39;;;;;;;1.60;1.50;;;22.60;99.90;;;;;;5103699;28;20298;-60
2022/07/21 05:51:06;;;;;;;1.50;1.40;;;22.60;99.90;;;;;;5110527;28;20357;-61
2022/07/21 05:53:33;;;;;;;1.60;1.50;;;22.50;99.90;;;;;;5109745;28;20213;-61
2022/07/21 05:56:01;;;;;;;1.40;1.30;;;22.60;99.90;;;;;;5108948;28;20193;-61
2022/07/21 05:58:28;;;;;;;1.63;1.52;;;22.70;99.90;;;;;;5109134;28;20198;-60
2022/07/21 06:01:12;;;;;;;1.60;1.50;;;22.70;99.90;;;;;;5112075;28;20209;-60
2022/07/21 06:03:40;;;;;;;1.60;1.50;;;22.70;99.90;;;;;;5104308;28;20617;-66
2022/07/21 06:06:08;;;;;;;1.42;1.40;;;22.70;99.90;;;;;;5102597;28;20218;-66
2022/07/21 06:08:35;;;;;;;1.58;1.55;;;22.60;99.90;;;;;;5108648;28;20242;-67
2022/07/21 06:11:04;;;;;;;1.65;1.55;;;22.40;99.90;;;;;;5103289;28;20237;-64
2022/07/21 06:13:31;;;;;;;1.60;1.50;;;22.30;99.90;;;;;;5111094;28;20447;-64
2022/07/21 06:15:58;;;;;;;1.48;1.40;;;22.10;99.90;;;;;;5113650;28;20222;-65
2022/07/21 06:18:25;;;;;;;1.40;1.33;;;22.10;99.90;;;;;;5110788;28;20242;-65
2022/07/21 06:20:51;;;;;;;1.63;1.52;;;22.40;99.90;;;;;;5107513;28;20206;-66
2022/07/21 06:23:18;;;;;;;1.60;1.50;;;22.60;99.90;;;;;;5110649;28;20294;-68
2022/07/21 06:25:46;;;;;;;1.70;1.60;;;22.80;99.90;;;;;;5108465;28;20229;-64
2022/07/21 06:28:14;;;;;;;1.77;1.67;;;23.00;99.90;;;;;;5106237;28;20205;-65
2022/07/21 06:30:41;;;;;;;1.35;1.35;;;23.10;99.90;;;;;;5109840;28;20202;-64
2022/07/21 06:33:08;;;;;;;1.70;1.60;;;23.20;99.90;;;;;;5110942;28;20233;-67
2022/07/21 06:35:35;;;;;;;1.50;1.40;;;23.40;99.90;;;;;;5107360;28;20221;-66
2022/07/21 06:38:02;;;;;;;1.48;1.40;;;23.50;99.90;;;;;;5109535;28;20280;-64
2022/07/21 06:40:29;;;;;;;2.42;1.65;;;23.60;99.90;;;;;;5105657;28;20198;-66
2022/07/21 06:42:56;;;;;;;1.67;1.58;;;23.90;99.90;;;;;;5109700;28;20731;-64
2022/07/21 06:45:25;;;;;;;1.50;1.50;;;23.90;99.90;;;;;;5107403;28;20659;-66
2022/07/21 06:48:00;;;;;;;1.63;1.53;;;23.90;99.90;;;;;;5111706;28;20226;-64
2022/07/21 06:50:27;;;;;;;1.60;1.50;;;23.70;99.90;;;;;;5107471;28;20293;-67
2022/07/21 06:52:54;;;;;;;1.80;1.70;;;23.60;99.90;;;;;;5111300;28;20758;-64
2022/07/21 06:55:21;;;;;;;1.70;1.60;;;23.50;99.90;;;;;;5110295;28;20248;-65
2022/07/21 06:57:48;;;;;;;1.70;1.60;;;23.60;99.90;;;;;;5109940;28;20281;-66
2022/07/21 07:00:16;;;;;;;1.67;1.58;;;23.70;99.90;;;;;;5111154;28;20202;-65
2022/07/21 07:02:44;;;;;;;1.73;1.63;;;23.80;99.90;;;;;;5110703;28;20606;-65
2022/07/21 07:05:11;;;;;;;1.73;1.63;;;24.10;99.90;;;;;;5115238;28;20221;-66
2022/07/21 07:07:38;;;;;;;1.70;1.60;;;24.30;99.90;;;;;;5121950;28;20260;-66
2022/07/21 07:10:06;;;;;;;1.40;1.40;;;24.40;99.90;;;;;;5109183;28;20270;-64
2022/07/21 07:12:32;;;;;;;1.70;1.60;;;24.40;99.90;;;;;;5107348;28;20234;-65
2022/07/21 07:14:59;;;;;;;1.40;1.40;;;24.60;99.90;;;;;;5113602;28;20233;-67
2022/07/21 07:17:26;;;;;;;1.70;1.60;;;24.80;99.90;;;;;;5120455;28;20194;-66
2022/07/21 07:19:54;;;;;;;1.52;1.48;;;24.90;99.90;;;;;;5121929;28;20236;-66
2022/07/21 07:22:21;;;;;;;1.83;1.73;;;24.70;99.90;;;;;;5111404;28;20277;-65
2022/07/21 07:24:48;;;;;;;1.77;1.70;;;24.70;99.90;;;;;;5113283;28;20308;-66
2022/07/21 07:27:15;;;;;;;1.70;1.60;;;24.60;99.90;;;;;;5102067;28;20226;-65
2022/07/21 07:29:41;;;;;;;1.48;1.48;;;24.60;99.90;;;;;;5111708;28;20206;-65
2022/07/21 07:32:09;;;;;;;1.70;1.60;;;24.50;99.90;;;;;;5118888;28;20284;-67
2022/07/21 07:34:36;;;;;;;1.80;1.70;;;24.50;99.90;;;;;;5117296;28;20312;-65
2022/07/21 07:37:04;;;;;;;1.75;1.65;;;24.50;99.90;;;;;;5117991;28;20301;-65
2022/07/21 07:39:31;;;;;;;1.77;1.67;;;24.80;99.90;;;;;;5112151;28;20782;-67
2022/07/21 07:41:58;;;;;;;1.88;1.77;;;24.90;99.90;;;;;;5111683;28;20281;-66
2022/07/21 07:44:25;;;;;;;1.85;1.75;;;25.20;99.90;;;;;;5109406;28;20253;-67
2022/07/21 07:46:52;;;;;;;1.70;1.60;;;25.50;99.90;;;;;;5114839;28;20222;-66
2022/07/21 07:49:19;;;;;;;1.90;1.80;;;25.40;99.90;;;;;;5112808;28;20202;-66
2022/07/21 07:51:46;;;;;;;1.63;1.63;;;25.50;99.90;;;;;;5110722;28;20589;-65
2022/07/21 07:54:14;;;;;;;1.67;1.67;;;25.70;99.90;;;;;;5105937;28;20691;-65
2022/07/21 07:56:41;;;;;;;1.70;1.60;;;25.70;99.90;;;;;;5106652;28;20203;-67
2022/07/21 07:59:09;;;;;;;1.70;1.60;;;25.60;99.90;;;;;;5114226;28;20229;-66
2022/07/21 08:01:36;;;;;;;1.90;1.80;;;25.70;99.90;;;;;;5105824;28;20222;-66
2022/07/21 08:04:03;;;;;;;1.70;1.60;;;25.90;99.90;;;;;;5109161;28;20329;-67
2022/07/21 08:06:29;;;;;;;1.70;1.60;;;26.00;99.90;;;;;;5101678;28;20194;-67
2022/07/21 08:08:56;;;;;;;1.45;1.42;;;25.70;99.90;;;;;;5113125;28;20229;-65
2022/07/21 08:11:25;;;;;;;1.60;1.60;;;25.40;99.90;;;;;;5110663;28;20291;-67
2022/07/21 08:13:51;;;;;;;1.70;1.60;;;25.20;99.90;;;;;;5109855;28;20274;-68
2022/07/21 08:16:18;;;;;;;1.80;1.70;;;25.00;99.90;;;;;;5109379;28;20221;-65
2022/07/21 08:18:46;;;;;;;1.80;1.70;;;25.10;99.90;;;;;;5110499;28;20297;-67
2022/07/21 08:21:13;;;;;;;1.67;1.58;;;25.30;99.90;;;;;;5108829;28;20202;-67
2022/07/21 08:23:39;;;;;;;2.47;1.58;;;25.60;99.90;;;;;;5100283;28;20933;-65
2022/07/21 08:26:06;;;;;;;1.73;1.63;;;25.80;99.90;;;;;;5106043;28;20198;-65
2022/07/21 08:28:35;;;;;;;1.52;1.52;;;26.20;99.90;;;;;;5114014;28;20320;-65
2022/07/21 08:31:02;;;;;;;1.55;1.45;;;26.50;99.90;;;;;;5106047;28;20224;-66
2022/07/21 08:33:28;;;;;;;1.60;1.50;;;26.70;99.90;;;;;;5106645;28;20278;-65
2022/07/21 08:35:55;;;;;;;1.55;1.45;;;26.80;99.90;;;;;;5101982;28;20257;-66
2022/07/21 08:38:23;;;;;;;2.10;1.77;;;26.90;99.90;;;;;;5107082;28;20579;-67
2022/07/21 08:40:49;;;;;;;1.40;1.40;;;27.10;99.90;;;;;;5103783;28;20202;-66
2022/07/21 08:43:16;;;;;;;1.40;1.40;;;27.30;99.90;;;;;;5108776;28;20281;-67
2022/07/21 08:45:45;;;;;;;1.48;1.42;;;27.40;99.90;;;;;;5112073;28;20297;-65
2022/07/21 08:48:17;;;;;;;1.38;1.38;;;27.50;99.90;;;;;;5109975;28;20214;-69
2022/07/21 08:50:46;;;;;;;2.78;1.80;;;27.60;99.90;;;;;;5119871;28;20194;-67
2022/07/21 08:53:13;;;;;;;3.58;2.00;;;27.70;99.90;;;;;;5118814;28;20194;-65
2022/07/21 08:55:40;;;;;;;1.67;1.58;;;27.80;99.90;;;;;;5115253;28;20253;-66
2022/07/21 08:58:09;;;;;;;1.30;1.30;;;27.80;99.90;;;;;;5112758;28;20205;-67
2022/07/21 09:00:37;;;;;;;1.52;1.42;;;27.90;99.90;;;;;;5111430;28;20201;-67
2022/07/21 09:03:17;;;;;;;1.40;1.40;;;27.90;99.90;;;;;;5108745;28;20205;-65
2022/07/21 09:06:00;;;;;;;1.45;1.40;;;27.30;99.90;;;;;;5107476;28;20328;-63
2022/07/21 09:08:31;;;;;;;1.45;1.45;;;27.20;99.90;;;;;;5109889;28;20301;-66
2022/07/21 09:11:13;;;;;;;1.10;1.10;;;26.70;99.90;;;;;;5104211;28;20197;-66
2022/07/21 09:13:41;;;;;;;1.40;1.40;;;26.20;99.90;;;;;;5108826;28;20200;-65
2022/07/21 09:16:08;;;;;;;1.10;1.10;;;26.40;99.90;;;;;;5104305;28;20201;-65
2022/07/21 09:18:48;;;;;;;1.20;1.20;;;26.70;99.90;;;;;;5108056;28;20280;-66
2022/07/21 09:21:17;;;;;;;1.20;1.20;;;26.30;99.90;;;;;;5109621;28;20233;-66
2022/07/21 09:23:44;;;;;;;1.40;1.40;;;26.00;99.90;;;;;;5109291;28;20226;-66
2022/07/21 09:26:11;;;;;;;1.50;1.40;;;25.80;99.90;;;;;;5107076;28;20238;-64
2022/07/21 09:28:38;;;;;;;1.30;1.30;;;25.70;99.90;;;;;;5109462;28;20739;-66
2022/07/21 09:31:07;;;;;;;1.40;1.30;;;25.70;99.90;;;;;;5109253;28;20206;-66
2022/07/21 09:33:38;;;;;;;1.30;1.30;;;25.70;99.90;;;;;;5108889;28;20670;-64
2022/07/21 09:36:08;;;;;;;1.50;1.40;;;25.80;99.90;;;;;;5110495;28;20228;-64
2022/07/21 09:38:36;;;;;;;1.10;1.10;;;26.10;99.90;;;;;;5109714;28;20204;-66
2022/07/21 09:41:09;;;;;;;1.40;1.40;;;26.60;99.90;;;;;;5107758;28;20674;-66
2022/07/21 09:43:42;;;;;;;1.88;1.20;;;27.00;99.90;;;;;;5102456;28;20245;-65
2022/07/21 09:46:12;;;;;;;1.45;1.35;;;26.90;99.90;;;;;;5100449;28;20206;-64
2022/07/21 09:48:41;;;;;;;1.30;1.20;;;27.10;99.90;;;;;;5106825;28;20218;-66
2022/07/21 09:51:26;;;;;;;1.40;1.30;;;27.30;99.90;;;;;;5107041;28;20293;-69
2022/07/21 09:53:59;;;;;;;1.00;1.00;;;27.40;99.90;;;;;;5105824;28;20254;-64
2022/07/21 09:56:27;;;;;;;1.45;1.20;;;27.70;99.90;;;;;;5107829;28;20229;-65
2022/07/21 09:58:56;;;;;;;1.58;1.00;;;28.10;99.90;;;;;;5108527;28;20282;-67
2022/07/21 10:01:23;;;;;;;0.98;0.98;;;28.30;99.90;;;;;;5104377;28;20226;-65
2022/07/21 10:03:53;;;;;;;0.98;0.90;;;28.40;99.90;;;;;;5110481;28;20294;-66
2022/07/21 10:06:23;;;;;;;0.95;0.95;;;28.60;99.90;;;;;;5109737;28;20265;-64
2022/07/21 10:08:51;;;;;;;1.00;1.00;;;28.60;99.90;;;;;;5107849;28;20318;-64
2022/07/21 10:11:18;;;;;;;1.13;1.13;;;28.40;99.90;;;;;;5112948;28;20262;-66
2022/07/21 10:13:45;;;;;;;1.10;1.10;;;28.40;99.90;;;;;;5117172;28;20289;-67
2022/07/21 10:16:13;;;;;;;1.10;1.05;;;28.60;99.90;;;;;;5111318;28;20298;-65
2022/07/21 10:18:53;;;;;;;0.88;0.88;;;28.80;99.90;;;;;;5109555;28;20198;-65
2022/07/21 10:21:37;;;;;;;1.05;1.05;;;28.70;99.90;;;;;;5107121;28;20566;-66
2022/07/21 10:24:04;;;;;;;1.00;1.00;;;28.90;99.90;;;;;;5102864;28;20249;-66
2022/07/21 10:26:31;;;;;;;1.08;1.08;;;29.10;99.90;;;;;;5095354;28;20213;-66
2022/07/21 10:28:58;;;;;;;0.85;0.85;;;29.10;99.90;;;;;;5120094;28;20221;-65
2022/07/21 10:31:27;;;;;;;1.00;1.00;;;28.90;99.90;;;;;;5099611;28;20317;-65
2022/07/21 10:33:56;;;;;;;1.00;1.00;;;28.70;99.90;;;;;;5114563;28;20222;-65
2022/07/21 10:36:56;;;;;;;1.05;1.05;;;29.00;99.90;;;;;;5110915;28;20304;-65
2022/07/21 10:39:27;;;;;;;1.00;1.00;;;29.10;99.90;;;;;;5110308;28;20661;-66
2022/07/21 10:42:00;;;;;;;1.00;1.00;;;29.20;99.90;;;;;;5106323;28;20202;-65
2022/07/21 10:44:47;;;;;;;1.23;1.17;;;29.30;99.90;;;;;;5111151;28;20228;-65
2022/07/21 10:47:18;;;;;;;0.88;0.88;;;29.10;99.90;;;;;;5112978;28;20667;-67
2022/07/21 10:49:48;;;;;;;1.00;1.00;;;29.30;99.90;;;;;;5108895;28;20683;-64
2022/07/21 10:52:52;;;;;;;1.10;1.10;;;29.60;99.90;;;;;;5112423;28;20229;-67
2022/07/21 10:55:26;;;;;;;1.10;1.10;;;29.60;99.90;;;;;;5109282;28;20241;-66
2022/07/21 10:58:24;;;;;;;1.00;1.00;;;29.60;99.90;;;;;;5111943;28;20231;-65
2022/07/21 11:00:51;;;;;;;0.90;0.90;;;29.80;99.90;;;;;;5112695;28;20820;-65
2022/07/21 11:03:23;;;;;;;1.10;1.10;;;29.90;99.90;;;;;;5111683;28;20241;-66
2022/07/21 11:06:16;;;;;;;1.00;1.00;;;30.00;99.90;;;;;;5108511;28;20271;-65
2022/07/21 11:08:44;;;;;;;0.90;0.90;;;30.00;99.90;;;;;;5110356;28;20224;-67
2022/07/21 11:11:14;;;;;;;1.00;1.00;;;30.10;99.90;;;;;;5109364;28;20289;-65
2022/07/21 11:14:06;;;;;;;1.00;1.00;;;30.20;99.90;;;;;;5114375;28;20281;-65
2022/07/21 11:17:08;;;;;;;1.27;1.27;;;30.20;99.90;;;;;;5116506;28;20229;-64
2022/07/21 11:19:39;;;;;;;1.10;1.00;;;30.40;99.90;;;;;;5118118;28;20233;-65
2022/07/21 11:22:12;;;;;;;1.10;1.10;;;30.60;99.90;;;;;;5113538;28;20655;-66
2022/07/21 11:24:40;;;;;;;1.00;1.00;;;30.60;99.90;;;;;;5119398;28;20354;-65
2022/07/21 11:27:11;;;;;;;1.23;1.23;;;30.60;99.90;;;;;;5120006;28;20204;-66
2022/07/21 11:29:41;;;;;;;0.98;0.98;;;30.60;99.90;;;;;;5110925;28;20285;-66
2022/07/21 11:32:09;;;;;;;1.00;1.00;;;30.20;99.90;;;;;;5111455;28;20296;-65
2022/07/21 11:34:42;;;;;;;1.00;1.00;;;29.70;99.90;;;;;;5108743;28;20222;-64
2022/07/21 11:37:10;;;;;;;1.05;1.05;;;29.50;99.90;;;;;;5111862;28;20202;-65
2022/07/21 11:39:37;;;;;;;1.00;1.00;;;29.40;99.90;;;;;;5105894;28;20260;-65
2022/07/21 11:42:05;;;;;;;1.00;1.00;;;29.50;99.90;;;;;;5105955;28;20212;-64
2022/07/21 11:44:34;;;;;;;1.10;1.10;;;29.70;99.90;;;;;;5112151;28;20624;-65
2022/07/21 11:47:03;;;;;;;1.10;1.10;;;30.00;99.90;;;;;;5104958;28;20238;-65
2022/07/21 11:49:31;;;;;;;1.02;1.02;;;30.30;99.90;;;;;;5106184;28;20254;-67
2022/07/21 11:52:00;;;;;;;0.90;0.90;;;30.40;99.90;;;;;;5111756;28;20202;-65
2022/07/21 11:54:31;;;;;;;1.13;1.10;;;30.30;99.90;;;;;;5112209;28;20228;-66
2022/07/21 11:57:00;;;;;;;0.90;0.90;;;30.20;99.90;;;;;;5111054;28;20314;-65
2022/07/21 11:59:27;;;;;;;0.80;0.80;;;30.00;99.90;;;;;;5112876;28;20247;-65
2022/07/21 12:01:59;;;;;;;1.00;1.00;;;30.00;99.90;;;;;;5113002;28;20208;-65
2022/07/21 12:04:38;;;;;;;0.90;0.90;;;30.10;99.90;;;;;;5113238;28;20229;-66
2022/07/21 12:07:08;;;;;;;1.02;1.00;;;29.90;99.90;;;;;;5112797;28;20198;-64
2022/07/21 12:09:35;;;;;;;0.98;0.98;;;29.80;99.90;;;;;;5111153;28;20256;-64
2022/07/21 12:12:02;;;;;;;0.90;0.90;;;30.10;99.90;;;;;;5104688;28;20284;-65
2022/07/21 12:14:44;;;;;;;1.25;1.15;;;30.20;99.90;;;;;;5109351;28;20866;-65
2022/07/21 12:17:13;;;;;;;1.00;1.00;;;30.20;99.90;;;;;;5098520;28;20204;-64
2022/07/21 12:19:40;;;;;;;0.90;0.90;;;30.20;99.90;;;;;;5110746;28;20205;-65
2022/07/21 12:22:08;;;;;;;1.00;1.00;;;30.00;99.90;;;;;;5111944;28;20206;-65
2022/07/21 12:24:55;;;;;;;0.88;0.88;;;30.10;99.90;;;;;;5110286;28;20666;-66
2022/07/21 12:27:24;;;;;;;1.55;1.00;;;30.20;99.90;;;;;;5114624;28;20225;-65
2022/07/21 12:29:51;;;;;;;0.80;0.80;;;30.20;99.90;;;;;;5113701;28;20310;-66
2022/07/21 12:32:44;;;;;;;1.02;1.02;;;30.30;99.90;;;;;;5110393;28;20202;-65
2022/07/21 12:35:24;;;;;;;0.77;0.77;;;30.40;99.90;;;;;;5113474;28;20394;-65
2022/07/21 12:38:02;;;;;;;1.00;1.00;;;30.50;99.90;;;;;;5110162;28;20290;-64
2022/07/21 12:40:31;;;;;;;0.98;0.98;;;30.60;99.90;;;;;;5106613;28;20683;-65
2022/07/21 12:43:09;;;;;;;1.05;1.05;;;30.40;99.90;;;;;;5099225;28;20207;-65
2022/07/21 12:45:51;;;;;;;0.85;0.85;;;29.60;99.90;;;;;;5108894;28;20229;-65
2022/07/21 12:48:20;;;;;;;1.00;1.00;;;29.20;99.90;;;;;;5107526;28;20217;-65
2022/07/21 12:51:13;;;;;;;1.08;1.08;;;29.20;99.90;;;;;;5109881;28;20289;-66
2022/07/21 12:53:43;;;;;;;1.00;1.00;;;29.20;99.90;;;;;;5106716;28;20865;-67
2022/07/21 12:56:11;;;;;;;0.90;0.90;;;29.30;99.90;;;;;;5108720;28;20197;-65
2022/07/21 12:58:39;;;;;;;1.00;1.00;;;29.30;99.90;;;;;;5113237;28;20289;-65
2022/07/21 13:01:06;;;;;;;1.00;1.00;;;29.70;99.90;;;;;;5112571;28;20698;-65